createdAt,value
2018-06-24T00:02:02.808Z,101650.22
2018-06-24T00:04:07.671Z,101646.69
2018-06-24T00:06:12.553Z,101640.56
2018-06-24T00:08:17.304Z,101623.24
2018-06-24T00:10:22.051Z,101641.24
2018-06-24T00:12:26.907Z,101634.85
2018-06-24T00:14:31.660Z,101649.94
2018-06-24T00:16:36.571Z,101640.91
2018-06-24T00:18:41.365Z,101646.41
2018-06-24T00:20:46.161Z,101645.53
2018-06-24T00:22:50.927Z,101651.78
2018-06-24T00:24:55.794Z,101602.32
2018-06-24T00:27:00.578Z,101644.30
2018-06-24T00:29:05.325Z,101643.18
2018-06-24T00:31:10.185Z,101516.10
2018-06-24T00:33:14.961Z,101640.60
2018-06-24T00:35:19.764Z,101632.45
2018-06-24T00:37:24.659Z,101619.51
2018-06-24T00:39:29.527Z,101635.27
2018-06-24T00:41:34.259Z,101598.09
2018-06-24T00:43:39.039Z,101628.06
2018-06-24T00:45:43.516Z,101626.03
2018-06-24T00:47:48.399Z,101628.41
2018-06-24T00:49:53.171Z,101622.84
2018-06-24T00:51:57.872Z,101619.84
2018-06-24T00:54:02.656Z,101616.71
2018-06-24T00:56:07.331Z,101607.68
2018-06-24T00:58:12.058Z,101611.21
2018-06-24T01:00:17.848Z,101604.77
2018-06-24T01:02:22.789Z,101602.32
2018-06-24T01:04:27.484Z,101589.14
2018-06-24T01:06:32.192Z,101586.56
2018-06-24T01:08:36.945Z,101597.22
2018-06-24T01:10:41.748Z,101589.01
2018-06-24T01:12:46.538Z,101587.38
2018-06-24T01:14:51.374Z,101588.27
2018-06-24T01:16:56.247Z,101588.33
2018-06-24T01:19:00.983Z,101578.96
2018-06-24T01:21:05.515Z,101574.55
2018-06-24T01:23:10.319Z,101571.02
2018-06-24T01:25:15.047Z,101568.50
2018-06-24T01:27:19.935Z,101568.64
2018-06-24T01:29:24.640Z,101570.88
2018-06-24T01:31:29.413Z,101570.33
2018-06-24T01:33:34.188Z,101575.55
2018-06-24T01:35:38.937Z,101573.17
2018-06-24T01:37:43.660Z,101575.20
2018-06-24T01:39:48.479Z,101570.39
2018-06-24T01:41:53.174Z,101569.79
2018-06-24T01:43:57.904Z,101474.77
2018-06-24T01:46:02.688Z,101553.30
2018-06-24T01:48:07.395Z,101558.93
2018-06-24T01:50:12.125Z,101563.34
2018-06-24T01:52:16.816Z,101553.91
2018-06-24T01:54:21.582Z,101549.49
2018-06-24T01:56:26.286Z,101549.14
2018-06-24T01:58:31.066Z,101556.82
2018-06-24T02:00:35.899Z,101550.03
2018-06-24T02:02:40.584Z,101550.30
2018-06-24T02:04:45.295Z,101547.32
2018-06-24T02:06:49.940Z,101551.30
2018-06-24T02:08:54.641Z,101553.10
2018-06-24T02:10:59.366Z,101550.94
2018-06-24T02:13:04.191Z,101545.11
2018-06-24T02:15:08.943Z,101553.52
2018-06-24T02:17:13.649Z,101525.33
2018-06-24T02:19:18.399Z,101550.79
2018-06-24T02:21:23.138Z,101549.47
2018-06-24T02:23:27.913Z,101553.12
2018-06-24T02:25:32.539Z,101548.59
2018-06-24T02:27:37.472Z,101550.47
2018-06-24T02:29:42.277Z,101549.19
2018-06-24T02:31:46.917Z,101498.84
2018-06-24T02:33:51.573Z,101533.66
2018-06-24T02:35:56.323Z,101540.58
2018-06-24T02:38:01.161Z,101539.88
2018-06-24T02:40:05.899Z,101542.12
2018-06-24T02:42:10.764Z,101543.62
2018-06-24T02:44:15.381Z,101543.56
2018-06-24T02:46:20.209Z,101548.08
2018-06-24T02:48:24.981Z,101544.17
2018-06-24T02:50:29.759Z,101547.30
2018-06-24T02:52:34.755Z,101544.75
2018-06-24T02:54:39.389Z,101544.50
2018-06-24T02:56:44.088Z,101536.62
2018-06-24T02:58:48.762Z,101543.14
2018-06-24T03:00:53.557Z,101544.05
2018-06-24T03:02:58.295Z,101512.88
2018-06-24T03:05:03.007Z,101546.22
2018-06-24T03:07:07.774Z,101549.13
2018-06-24T03:09:12.834Z,101551.59
2018-06-24T03:11:17.517Z,101546.73
2018-06-24T03:13:22.403Z,101553.02
2018-06-24T03:15:27.002Z,101555.20
2018-06-24T03:17:32.071Z,101551.90
2018-06-24T03:19:36.749Z,101547.25
2018-06-24T03:21:41.482Z,101550.30
2018-06-24T03:23:46.189Z,101546.62
2018-06-24T03:25:50.931Z,101530.79
2018-06-24T03:27:55.671Z,101550.88
2018-06-24T03:30:00.387Z,101552.74
2018-06-24T03:32:05.121Z,101555.80
2018-06-24T03:34:09.783Z,101552.82
2018-06-24T03:36:14.448Z,101557.56
2018-06-24T03:38:19.109Z,101545.55
2018-06-24T03:40:23.818Z,101558.09
2018-06-24T03:42:28.467Z,101554.55
2018-06-24T03:44:33.208Z,101556.80
2018-06-24T03:46:38.048Z,101561.30
2018-06-24T03:48:42.719Z,101555.84
2018-06-24T03:50:47.442Z,101541.70
2018-06-24T03:52:52.095Z,101554.59
2018-06-24T03:54:56.821Z,101550.41
2018-06-24T03:57:01.678Z,101553.78
2018-06-24T03:59:06.505Z,101556.11
2018-06-24T04:01:11.281Z,101545.80
2018-06-24T04:03:15.904Z,101552.09
2018-06-24T04:05:20.527Z,101550.81
2018-06-24T04:07:25.200Z,101506.26
2018-06-24T04:09:29.871Z,101545.42
2018-06-24T04:11:34.585Z,101542.61
2018-06-24T04:13:39.289Z,101543.09
2018-06-24T04:15:43.950Z,101551.04
2018-06-24T04:17:48.698Z,101531.60
2018-06-24T04:19:53.286Z,101558.36
2018-06-24T04:21:57.942Z,101556.75
2018-06-24T04:24:02.529Z,101555.55
2018-06-24T04:26:08.318Z,101553.54
2018-06-24T04:28:13.074Z,101550.25
2018-06-24T04:30:17.759Z,101550.01
2018-06-24T04:32:22.358Z,101551.45
2018-06-24T04:34:27.000Z,101533.66
2018-06-24T04:36:31.666Z,101549.05
2018-06-24T04:38:36.424Z,101558.20
2018-06-24T04:40:41.124Z,101542.13
2018-06-24T04:42:45.848Z,101566.73
2018-06-24T04:44:50.489Z,101573.23
2018-06-24T04:46:55.403Z,101574.04
2018-06-24T04:49:00.218Z,101572.67
2018-06-24T04:51:05.230Z,101571.88
2018-06-24T04:53:09.990Z,101573.39
2018-06-24T04:55:14.607Z,101577.41
2018-06-24T04:57:19.221Z,101576.34
2018-06-24T04:59:24.053Z,101582.87
2018-06-24T05:01:28.681Z,101542.69
2018-06-24T05:03:33.272Z,101584.88
2018-06-24T05:05:38.084Z,101573.14
2018-06-24T05:07:42.751Z,101591.15
2018-06-24T05:09:47.380Z,101590.99
2018-06-24T05:11:52.085Z,101587.20
2018-06-24T05:13:56.811Z,101585.03
2018-06-24T05:16:01.434Z,101586.48
2018-06-24T05:18:06.779Z,101591.80
2018-06-24T05:20:11.404Z,101579.58
2018-06-24T05:22:16.117Z,101583.11
2018-06-24T05:24:20.806Z,101588.02
2018-06-24T05:26:25.833Z,101542.21
2018-06-24T05:28:30.522Z,101594.04
2018-06-24T05:30:35.185Z,101596.05
2018-06-24T05:32:40.123Z,101601.27
2018-06-24T05:34:44.926Z,101582.42
2018-06-24T05:36:49.860Z,101604.44
2018-06-24T05:38:54.547Z,101605.25
2018-06-24T05:40:59.178Z,101580.83
2018-06-24T05:43:03.827Z,101604.39
2018-06-24T05:45:08.659Z,101597.62
2018-06-24T05:47:13.543Z,101595.68
2018-06-24T05:49:18.296Z,101601.36
2018-06-24T05:51:23.240Z,101603.16
2018-06-24T05:53:28.479Z,101594.31
2018-06-24T05:55:33.533Z,101592.50
2018-06-24T05:57:38.489Z,101594.48
2018-06-24T05:59:43.324Z,101602.41
2018-06-24T06:01:48.122Z,101602.96
2018-06-24T06:03:53.770Z,101603.63
2018-06-24T06:05:58.596Z,101608.55
2018-06-24T06:08:03.339Z,101588.38
2018-06-24T06:10:08.360Z,101614.26
2018-06-24T06:12:13.282Z,101615.88
2018-06-24T06:14:18.286Z,101620.37
2018-06-24T06:16:23.033Z,101616.24
2018-06-24T06:18:27.729Z,101617.76
2018-06-24T06:20:32.445Z,101619.08
2018-06-24T06:22:37.224Z,101615.63
2018-06-24T06:24:41.928Z,101616.39
2018-06-24T06:26:46.615Z,101614.84
2018-06-24T06:28:51.285Z,101612.07
2018-06-24T06:30:56.291Z,101618.00
2018-06-24T06:33:01.010Z,101607.02
2018-06-24T06:35:06.395Z,101620.05
2018-06-24T06:37:11.399Z,101628.00
2018-06-24T06:39:16.146Z,101455.98
2018-06-24T06:41:21.059Z,101633.73
2018-06-24T06:43:25.810Z,101617.27
2018-06-24T06:45:30.815Z,101614.95
2018-06-24T06:47:35.662Z,101642.60
2018-06-24T06:49:40.963Z,101633.67
2018-06-24T06:51:45.860Z,101638.25
2018-06-24T06:53:50.655Z,101629.77
2018-06-24T06:55:55.451Z,101634.23
2018-06-24T06:58:00.244Z,101636.36
2018-06-24T07:00:05.978Z,101631.92
2018-06-24T07:02:11.115Z,101629.87
2018-06-24T07:04:15.933Z,101632.53
2018-06-24T07:06:22.768Z,101427.48
2018-06-24T07:08:27.486Z,101588.87
2018-06-24T07:10:32.227Z,101639.30
2018-06-24T07:12:37.066Z,101625.94
2018-06-24T07:14:41.894Z,101640.56
2018-06-24T07:16:46.669Z,101643.41
2018-06-24T07:18:51.427Z,101645.97
2018-06-24T07:20:56.554Z,101652.45
2018-06-24T07:23:01.455Z,101650.42
2018-06-24T07:25:06.416Z,101646.89
2018-06-24T07:27:11.238Z,101638.11
2018-06-24T07:29:15.995Z,101648.99
2018-06-24T07:31:20.803Z,101641.25
2018-06-24T07:33:25.587Z,101646.58
2018-06-24T07:35:30.428Z,101644.44
2018-06-24T07:37:35.207Z,101654.83
2018-06-24T07:39:39.940Z,101651.22
2018-06-24T07:41:44.778Z,101659.90
2018-06-24T07:43:49.560Z,101655.22
2018-06-24T07:45:54.487Z,101659.77
2018-06-24T07:47:59.365Z,101665.61
2018-06-24T07:50:04.435Z,101658.28
2018-06-24T07:52:09.315Z,101614.73
2018-06-24T07:54:14.266Z,101658.43
2018-06-24T07:56:19.102Z,101658.02
2018-06-24T08:00:32.943Z,101655.03
2018-06-24T08:02:37.710Z,101654.14
2018-06-24T08:04:42.700Z,101654.34
2018-06-24T08:06:47.436Z,101661.42
2018-06-24T08:08:52.818Z,101657.88
2018-06-24T08:10:57.756Z,101656.37
2018-06-24T08:13:02.732Z,101656.26
2018-06-24T08:15:07.567Z,101645.08
2018-06-24T08:17:12.474Z,101651.27
2018-06-24T08:19:17.375Z,101652.90
2018-06-24T08:21:22.200Z,101635.58
2018-06-24T08:23:26.903Z,101644.92
2018-06-24T08:25:31.765Z,101635.70
2018-06-24T08:27:36.580Z,101645.93
2018-06-24T08:29:41.338Z,101661.33
2018-06-24T08:31:46.157Z,101654.64
2018-06-24T08:33:50.973Z,101655.82
2018-06-24T08:35:56.049Z,101655.62
2018-06-24T08:38:00.914Z,101655.39
2018-06-24T08:40:05.808Z,101650.40
2018-06-24T08:42:10.887Z,101659.48
2018-06-24T08:44:15.608Z,101658.78
2018-06-24T08:46:20.376Z,101661.61
2018-06-24T08:48:26.007Z,101663.78
2018-06-24T08:50:30.855Z,101658.71
2018-06-24T08:52:35.992Z,101637.41
2018-06-24T08:54:40.720Z,101668.30
2018-06-24T08:56:45.628Z,101674.81
2018-06-24T08:58:50.444Z,101665.06
2018-06-24T09:00:55.559Z,101669.19
2018-06-24T09:03:00.885Z,101676.19
2018-06-24T09:05:05.663Z,101639.66
2018-06-24T09:07:10.452Z,101671.22
2018-06-24T09:09:15.157Z,101678.84
2018-06-24T09:11:20.014Z,101680.56
2018-06-24T09:13:24.802Z,101673.74
2018-06-24T09:15:29.697Z,101674.58
2018-06-24T09:17:34.495Z,101676.98
2018-06-24T09:19:39.250Z,101664.63
2018-06-24T09:21:44.074Z,101669.08
2018-06-24T09:23:48.842Z,101667.09
2018-06-24T09:25:53.641Z,101649.19
2018-06-24T09:27:58.369Z,101657.55
2018-06-24T09:30:03.147Z,101684.22
2018-06-24T09:32:07.888Z,101674.86
2018-06-24T09:34:15.266Z,101676.56
2018-06-24T09:36:22.013Z,101680.54
2018-06-24T09:38:26.843Z,101673.87
2018-06-24T09:40:31.840Z,101668.88
2018-06-24T09:42:36.600Z,101669.42
2018-06-24T09:44:41.366Z,101667.69
2018-06-24T09:46:46.166Z,101655.13
2018-06-24T09:48:50.992Z,101642.78
2018-06-24T09:50:55.722Z,101662.54
2018-06-24T09:53:00.453Z,101674.89
2018-06-24T09:55:05.362Z,101677.13
2018-06-24T09:57:10.192Z,101659.92
2018-06-24T09:59:15.272Z,101648.02
2018-06-24T10:01:20.220Z,101671.19
2018-06-24T10:03:25.219Z,101671.98
2018-06-24T10:05:30.004Z,101676.08
2018-06-24T10:07:34.963Z,101674.25
2018-06-24T10:09:39.844Z,101651.02
2018-06-24T10:11:44.649Z,101620.61
2018-06-24T10:13:49.501Z,101674.09
2018-06-24T10:15:54.781Z,101672.95
2018-06-24T10:17:59.618Z,101667.93
2018-06-24T10:20:04.771Z,101673.63
2018-06-24T10:22:09.496Z,101676.09
2018-06-24T10:24:14.295Z,101666.38
2018-06-24T10:26:22.242Z,101643.41
2018-06-24T10:28:28.496Z,101665.00
2018-06-24T10:30:33.476Z,101665.65
2018-06-24T10:32:38.307Z,101673.13
2018-06-24T10:34:43.102Z,101659.25
2018-06-24T10:36:47.948Z,101664.64
2018-06-24T10:38:52.830Z,101651.45
2018-06-24T10:40:57.623Z,101676.69
2018-06-24T10:43:02.613Z,101675.38
2018-06-24T10:45:07.511Z,101634.56
2018-06-24T10:47:12.433Z,101627.56
2018-06-24T10:49:17.467Z,101664.59
2018-06-24T10:51:22.295Z,101654.83
2018-06-24T10:53:27.080Z,101660.55
2018-06-24T10:55:32.228Z,101664.86
2018-06-24T10:57:37.203Z,101659.44
2018-06-24T10:59:42.063Z,101663.06
2018-06-24T11:03:45.159Z,101660.69
2018-06-24T11:05:49.936Z,101609.53
2018-06-24T11:07:55.008Z,101665.98
2018-06-24T11:09:59.863Z,101584.19
2018-06-24T11:12:04.642Z,101449.57
2018-06-24T11:14:09.533Z,101668.53
2018-06-24T11:16:14.454Z,101669.36
2018-06-24T11:18:19.290Z,101670.38
2018-06-24T11:20:24.080Z,101667.70
2018-06-24T11:22:28.906Z,101660.55
2018-06-24T11:24:33.800Z,101670.05
2018-06-24T11:26:39.010Z,101664.03
2018-06-24T11:28:43.857Z,101663.84
2018-06-24T11:30:48.924Z,101666.39
2018-06-24T11:32:54.029Z,101663.62
2018-06-24T11:34:58.921Z,101628.67
2018-06-24T11:37:03.909Z,101650.02
2018-06-24T11:39:10.612Z,101645.12
2018-06-24T11:41:15.489Z,101651.95
2018-06-24T11:43:20.369Z,101655.61
2018-06-24T11:45:25.382Z,101631.97
2018-06-24T11:47:30.337Z,101626.14
2018-06-24T11:49:35.438Z,101647.14
2018-06-24T11:51:40.322Z,101654.75
2018-06-24T11:53:45.259Z,101646.41
2018-06-24T11:55:51.628Z,101595.02
2018-06-24T11:57:56.599Z,101647.43
2018-06-24T12:00:01.438Z,101637.94
2018-06-24T12:02:06.372Z,101639.28
2018-06-24T12:04:11.338Z,101651.70
2018-06-24T12:06:16.112Z,101642.66
2018-06-24T12:08:21.016Z,101650.83
2018-06-24T12:10:25.954Z,101638.55
2018-06-24T12:12:30.862Z,101646.99
2018-06-24T12:14:35.929Z,101648.81
2018-06-24T12:16:40.795Z,101640.61
2018-06-24T12:18:45.614Z,101656.48
2018-06-24T12:20:50.508Z,101645.23
2018-06-24T12:22:55.371Z,101645.31
2018-06-24T12:25:00.166Z,101656.98
2018-06-24T12:27:05.221Z,101637.47
2018-06-24T12:29:10.199Z,101622.07
2018-06-24T12:31:15.362Z,101607.17
2018-06-24T12:33:20.236Z,101636.93
2018-06-24T12:35:25.105Z,101639.73
2018-06-24T12:37:30.052Z,101628.12
2018-06-24T12:39:34.795Z,101624.69
2018-06-24T12:41:39.700Z,101615.95
2018-06-24T12:43:44.629Z,101592.78
2018-06-24T12:45:49.743Z,101613.47
2018-06-24T12:47:54.599Z,101605.92
2018-06-24T12:52:14.544Z,101617.41
2018-06-24T12:54:19.405Z,101615.88
2018-06-24T12:56:24.351Z,101633.17
2018-06-24T12:58:29.847Z,101622.69
2018-06-24T13:00:35.130Z,101618.85
2018-06-24T13:02:39.463Z,101623.52
2018-06-24T13:04:44.500Z,101610.80
2018-06-24T13:06:49.383Z,101631.20
2018-06-24T13:08:54.950Z,101614.95
2018-06-24T13:11:00.161Z,101621.34
2018-06-24T13:13:05.795Z,101623.77
2018-06-24T13:15:11.392Z,101626.34
2018-06-24T13:17:18.309Z,101598.78
2018-06-24T13:19:23.415Z,101620.48
2018-06-24T13:21:28.308Z,101582.23
2018-06-24T13:23:34.473Z,101601.28
2018-06-24T13:25:39.532Z,101580.55
2018-06-24T13:27:44.345Z,101609.79
2018-06-24T13:29:49.367Z,101588.66
2018-06-24T13:31:54.484Z,101617.94
2018-06-24T13:33:59.750Z,101586.93
2018-06-24T13:36:04.949Z,101605.61
2018-06-24T13:38:10.612Z,101599.52
2018-06-24T13:40:15.948Z,101581.83
2018-06-24T13:42:21.105Z,101594.06
2018-06-24T13:44:26.161Z,101613.52
2018-06-24T13:46:31.175Z,101560.42
2018-06-24T13:48:56.003Z,101609.53
2018-06-24T13:51:41.152Z,101590.09
2018-06-24T13:53:52.868Z,101608.33
2018-06-24T13:56:06.144Z,101608.59
2018-06-24T13:58:35.017Z,101606.22
2018-06-24T14:00:58.009Z,101601.97
2018-06-24T14:03:42.425Z,101557.21
2018-06-24T14:06:18.276Z,101615.57
2018-06-24T14:08:35.165Z,101609.28
2018-06-24T14:10:52.185Z,101609.36
2018-06-24T14:13:25.641Z,101613.05
2018-06-24T14:15:30.560Z,101614.34
2018-06-24T14:17:41.709Z,101603.88
2018-06-24T14:19:52.525Z,101604.66
2018-06-24T14:21:59.799Z,101599.58
2018-06-24T14:24:08.487Z,101600.45
2018-06-24T14:26:22.561Z,101606.37
2018-06-24T14:28:57.973Z,101609.58
2018-06-24T14:31:31.506Z,101604.89
2018-06-24T14:34:11.185Z,101604.14
2018-06-24T14:36:38.563Z,101600.25
2018-06-24T14:39:03.742Z,101608.05
2018-06-24T14:41:23.158Z,101577.88
2018-06-24T14:43:33.500Z,101602.30
2018-06-24T14:45:41.026Z,101601.89
2018-06-24T14:48:00.694Z,101603.33
2018-06-24T14:50:09.646Z,101600.73
2018-06-24T14:52:14.768Z,101608.72
2018-06-24T14:56:21.497Z,101584.86
2018-06-24T14:58:26.341Z,101590.74
2018-06-24T15:00:31.263Z,101593.53
2018-06-24T15:02:40.392Z,101611.97
2018-06-24T15:04:45.219Z,101614.03
2018-06-24T15:06:50.104Z,101607.38
2018-06-24T15:08:55.216Z,101604.55
2018-06-24T15:11:00.869Z,101593.52
2018-06-24T15:13:10.339Z,101606.58
2018-06-24T15:15:30.627Z,101570.47
2018-06-24T15:17:49.221Z,101613.06
2018-06-24T15:19:55.751Z,101588.59
2018-06-24T15:22:25.076Z,101601.55
2018-06-24T15:24:44.982Z,101606.58
2018-06-24T15:27:00.408Z,101603.20
2018-06-24T15:29:10.012Z,101606.11
2018-06-24T15:31:18.609Z,101604.70
2018-06-24T15:33:23.629Z,101598.39
2018-06-24T15:36:01.208Z,101594.55
2018-06-24T15:38:14.221Z,101593.61
2018-06-24T15:40:35.128Z,101596.84
2018-06-24T15:42:59.956Z,101588.87
2018-06-24T15:45:07.452Z,101591.63
2018-06-24T15:47:26.546Z,101594.59
2018-06-24T15:49:56.060Z,101553.98
2018-06-24T15:52:19.730Z,101590.63
2018-06-24T15:54:39.779Z,101586.39
2018-06-24T15:57:02.287Z,101575.09
2018-06-24T15:59:18.132Z,101578.46
2018-06-24T16:01:29.010Z,101587.02
2018-06-24T16:03:48.572Z,101578.06
2018-06-24T16:05:56.116Z,101587.66
2018-06-24T16:08:14.012Z,101579.94
2018-06-24T16:10:26.110Z,101579.98
2018-06-24T16:12:48.655Z,101596.00
2018-06-24T16:15:19.925Z,101514.08
2018-06-24T16:17:28.332Z,101598.69
2018-06-24T16:19:51.130Z,101585.36
2018-06-24T16:22:14.508Z,101567.23
2018-06-24T16:24:53.601Z,101504.81
2018-06-24T16:27:03.451Z,101327.02
2018-06-24T16:29:11.347Z,101582.78
2018-06-24T16:31:31.401Z,101579.73
2018-06-24T16:33:43.322Z,101580.56
2018-06-24T16:35:49.573Z,101582.72
2018-06-24T16:37:58.703Z,101557.76
2018-06-24T16:40:18.989Z,101581.70
2018-06-24T16:42:40.988Z,101427.62
2018-06-24T16:45:04.728Z,101573.98
2018-06-24T16:47:22.759Z,101594.06
2018-06-24T16:49:45.856Z,101553.98
2018-06-24T16:52:03.669Z,101565.33
2018-06-24T16:54:35.746Z,101482.45
2018-06-24T16:56:51.476Z,101559.16
2018-06-24T16:59:24.942Z,101565.85
2018-06-24T17:01:40.025Z,101568.12
2018-06-24T17:04:23.805Z,101570.73
2018-06-24T17:06:42.377Z,101573.05
2018-06-24T17:08:52.550Z,101426.66
2018-06-24T17:11:02.557Z,101492.48
2018-06-24T17:13:24.734Z,101577.15
2018-06-24T17:15:55.000Z,101578.14
2018-06-24T17:18:28.584Z,101529.34
2018-06-24T17:20:52.181Z,101569.50
2018-06-24T17:23:08.270Z,101487.75
2018-06-24T17:25:19.071Z,101580.49
2018-06-24T17:28:02.707Z,101572.90
2018-06-24T17:30:22.677Z,101577.32
2018-06-24T17:32:36.599Z,101576.80
2018-06-24T17:35:07.746Z,101573.09
2018-06-24T17:37:45.029Z,101486.89
2018-06-24T17:40:18.234Z,101579.25
2018-06-24T17:42:52.433Z,101567.80
2018-06-24T17:48:10.313Z,101576.93
2018-06-24T17:50:32.091Z,101566.57
2018-06-24T17:53:05.063Z,101573.63
2018-06-24T17:55:34.884Z,101561.61
2018-06-24T17:58:09.536Z,101565.48
2018-06-24T18:00:28.862Z,101572.31
2018-06-24T18:02:45.649Z,101575.91
2018-06-24T18:04:57.918Z,101565.76
2018-06-24T18:07:06.348Z,101508.84
2018-06-24T18:09:29.636Z,101565.94
2018-06-24T18:11:37.828Z,101563.88
2018-06-24T18:14:04.640Z,101428.44
2018-06-24T18:16:51.333Z,101536.31
2018-06-24T18:19:08.913Z,101556.23
2018-06-24T18:21:20.477Z,101560.67
2018-06-24T18:23:32.420Z,101553.03
2018-06-24T18:25:41.988Z,101560.94
2018-06-24T18:28:01.246Z,101548.68
2018-06-24T18:30:12.748Z,101560.30
2018-06-24T18:32:25.878Z,101551.73
2018-06-24T18:34:59.461Z,101554.66
2018-06-24T18:37:12.585Z,101412.55
2018-06-24T18:39:33.727Z,101542.72
2018-06-24T18:44:57.177Z,101543.00
2018-06-24T18:47:38.450Z,101545.44
2018-06-24T18:50:06.022Z,101548.41
2018-06-24T18:52:54.854Z,101538.02
2018-06-24T19:03:48.312Z,101540.88
2018-06-24T19:09:14.987Z,101542.59
2018-06-24T19:11:38.217Z,101537.54
2018-06-24T19:13:58.621Z,101538.98
2018-06-24T19:16:31.611Z,101546.70
2018-06-24T19:19:01.745Z,101533.01
2018-06-24T19:21:31.297Z,101546.88
2018-06-24T19:23:56.904Z,101553.41
2018-06-24T19:26:31.669Z,101549.01
2018-06-24T19:29:00.195Z,101550.52
2018-06-24T19:31:27.406Z,101555.89
2018-06-24T19:34:07.378Z,101374.66
2018-06-24T19:36:28.707Z,101555.23
2018-06-24T19:38:55.920Z,101558.33
2018-06-24T19:41:22.539Z,101560.64
2018-06-24T19:43:49.447Z,101450.58
2018-06-24T19:46:12.833Z,101562.15
2018-06-24T19:48:46.403Z,101555.94
2018-06-24T19:51:16.721Z,101569.27
2018-06-24T19:53:56.031Z,101572.98
2018-06-24T19:56:38.427Z,101556.41
2018-06-24T19:59:23.665Z,101370.23
2018-06-24T20:02:03.093Z,101585.91
2018-06-24T20:04:41.872Z,101598.55
2018-06-24T20:07:19.048Z,101591.27
2018-06-24T20:09:56.227Z,101599.08
2018-06-24T20:12:32.607Z,101598.05
2018-06-24T20:14:58.348Z,101603.30
2018-06-24T20:17:34.017Z,101633.81
2018-06-24T20:20:01.751Z,101611.94
2018-06-24T20:22:25.742Z,101610.30
2018-06-24T20:24:40.780Z,101322.02
2018-06-24T20:26:57.500Z,101591.80
2018-06-24T20:29:20.070Z,101605.17
2018-06-24T20:31:38.616Z,101612.03
2018-06-24T20:34:03.108Z,101605.99
2018-06-24T20:36:24.122Z,101612.61
2018-06-24T20:39:05.557Z,101588.05
2018-06-24T20:41:15.649Z,101617.81
2018-06-24T20:43:45.132Z,101613.26
2018-06-24T20:46:00.770Z,101613.33
2018-06-24T20:48:23.126Z,101482.84
2018-06-24T20:50:37.559Z,101610.44
2018-06-24T20:52:58.667Z,101595.59
2018-06-24T20:55:19.451Z,101470.31
2018-06-24T20:57:35.952Z,101611.22
2018-06-24T21:00:00.114Z,101586.09
2018-06-24T21:02:22.870Z,101604.91
2018-06-24T21:07:34.245Z,101606.06
2018-06-24T21:10:03.918Z,101543.26
2018-06-24T21:12:23.648Z,101608.70
2018-06-24T21:14:55.995Z,101532.66
2018-06-24T21:17:23.272Z,101607.22
2018-06-24T21:19:28.457Z,101610.27
2018-06-24T21:21:33.700Z,101615.07
2018-06-24T21:23:38.926Z,101611.22
2018-06-24T21:25:44.125Z,101618.83
2018-06-24T21:27:49.273Z,101614.75
2018-06-24T21:29:57.197Z,101623.84
2018-06-24T21:32:04.178Z,101620.77
2018-06-24T21:34:11.722Z,101621.24
2018-06-24T21:36:17.977Z,101628.98
2018-06-24T21:38:24.149Z,101616.80
2018-06-24T21:40:30.000Z,101613.67
2018-06-24T21:42:35.334Z,101553.16
2018-06-24T21:44:42.031Z,101615.03
2018-06-24T21:46:48.711Z,101613.26
2018-06-24T21:48:53.640Z,101602.77
2018-06-24T21:51:00.430Z,101605.25
2018-06-24T21:53:07.044Z,101593.35
2018-06-24T21:55:14.600Z,101598.31
2018-06-24T21:57:21.682Z,101609.32
2018-06-24T21:59:28.513Z,101449.98
2018-06-24T22:01:35.932Z,101605.11
2018-06-24T22:03:42.521Z,101612.09
2018-06-24T22:05:49.604Z,101604.16
2018-06-24T22:07:56.705Z,101611.69
2018-06-24T22:10:03.711Z,101609.59
2018-06-24T22:12:10.432Z,101614.28
2018-06-24T22:14:17.642Z,101607.14
2018-06-24T22:16:24.756Z,101620.46
2018-06-24T22:18:32.240Z,101542.59
2018-06-24T22:20:39.382Z,101605.69
2018-06-24T22:22:46.220Z,101612.05
2018-06-24T22:24:53.240Z,101621.52
2018-06-24T22:27:00.512Z,101490.42
2018-06-24T22:29:07.752Z,101455.14
2018-06-24T22:31:14.702Z,101537.27
2018-06-24T22:33:22.034Z,101638.92
2018-06-24T22:35:29.024Z,101613.75
2018-06-24T22:37:36.189Z,101618.75
2018-06-24T22:39:43.010Z,101618.57
2018-06-24T22:41:49.855Z,101584.09
2018-06-24T22:43:56.999Z,101618.34
2018-06-24T22:46:04.164Z,101619.41
2018-06-24T22:48:10.987Z,101610.51
2018-06-24T22:50:18.137Z,101616.69
2018-06-24T22:52:25.541Z,101613.11
2018-06-24T22:54:32.946Z,101622.38
2018-06-24T22:59:08.374Z,101619.45
2018-06-24T23:01:15.588Z,101553.16
2018-06-24T23:03:22.702Z,101629.87
2018-06-24T23:05:30.025Z,101569.28
2018-06-24T23:07:37.163Z,101554.10
2018-06-24T23:09:42.515Z,101634.06
2018-06-24T23:11:49.158Z,101587.62
2018-06-24T23:13:56.128Z,101631.33
2018-06-24T23:16:03.337Z,101617.16
2018-06-24T23:18:09.900Z,101532.36
2018-06-24T23:20:16.601Z,101630.47
2018-06-24T23:22:23.632Z,101618.80
2018-06-24T23:24:30.189Z,101596.05
2018-06-24T23:26:37.461Z,101598.41
2018-06-24T23:28:42.676Z,101563.91
2018-06-24T23:30:47.831Z,101617.68
2018-06-24T23:32:54.613Z,101614.23
2018-06-24T23:35:01.695Z,101595.43
2018-06-24T23:37:06.571Z,101610.28
2018-06-24T23:39:11.450Z,101594.08
2018-06-24T23:41:16.372Z,101506.02
2018-06-24T23:43:21.349Z,101606.42
2018-06-24T23:45:26.286Z,101595.29
2018-06-24T23:47:31.229Z,101467.35
2018-06-24T23:49:36.021Z,101586.19
2018-06-24T23:51:40.919Z,101581.08
2018-06-24T23:53:45.806Z,101465.88
2018-06-24T23:55:50.704Z,101598.77
2018-06-24T23:57:55.556Z,101588.63
